createdAt,value
2022-09-30T00:00:03.723Z,1.02
2022-09-30T00:05:11.952Z,1.20
2022-09-30T00:10:17.266Z,1.10
2022-09-30T00:15:20.606Z,0.98
2022-09-30T00:20:23.872Z,1.40
2022-09-30T00:25:28.445Z,1.13
2022-09-30T00:30:31.677Z,1.08
2022-09-30T00:35:34.910Z,1.17
2022-09-30T00:40:40.961Z,1.23
2022-09-30T00:45:50.736Z,1.08
2022-09-30T00:50:55.645Z,1.23
2022-09-30T00:56:04.656Z,1.45
2022-09-30T01:01:08.218Z,1.17
2022-09-30T01:06:11.552Z,1.10
2022-09-30T01:11:16.433Z,1.15
2022-09-30T01:16:37.099Z,1.30
2022-09-30T01:22:08.105Z,1.50
2022-09-30T01:27:32.401Z,1.58
2022-09-30T01:33:04.905Z,1.30
2022-09-30T01:38:15.287Z,1.50
2022-09-30T01:43:29.792Z,1.20
2022-09-30T01:48:40.468Z,1.90
2022-09-30T01:53:51.351Z,1.67
2022-09-30T01:59:00.171Z,1.60
2022-09-30T02:04:09.921Z,1.60
2022-09-30T02:09:16.039Z,1.70
2022-09-30T02:14:24.971Z,1.85
2022-09-30T02:19:34.764Z,1.63
2022-09-30T02:24:39.007Z,1.85
2022-09-30T02:29:47.962Z,1.73
2022-09-30T02:34:58.804Z,1.90
2022-09-30T02:40:08.215Z,1.73
2022-09-30T02:45:16.537Z,1.90
2022-09-30T02:50:31.450Z,1.90
2022-09-30T02:55:41.947Z,2.03
2022-09-30T03:00:45.517Z,1.98
2022-09-30T03:05:52.368Z,1.98
2022-09-30T03:10:55.984Z,1.92
2022-09-30T03:16:15.214Z,1.98
2022-09-30T03:21:44.790Z,2.47
2022-09-30T03:26:56.264Z,1.80
2022-09-30T03:32:09.648Z,2.20
2022-09-30T03:37:25.002Z,2.17
2022-09-30T03:42:35.315Z,2.75
2022-09-30T03:47:45.654Z,2.75
2022-09-30T03:52:52.374Z,2.75
2022-09-30T03:57:56.091Z,2.80
2022-09-30T04:02:59.321Z,1.90
2022-09-30T04:08:04.077Z,2.30
2022-09-30T04:13:07.292Z,2.63
2022-09-30T04:18:10.616Z,2.40
2022-09-30T04:23:15.555Z,2.13
2022-09-30T04:28:18.849Z,2.50
2022-09-30T04:33:22.087Z,2.55
2022-09-30T04:38:27.698Z,2.22
2022-09-30T04:43:31.060Z,2.42
2022-09-30T04:48:34.407Z,2.53
2022-09-30T04:53:39.966Z,2.78
2022-09-30T04:58:43.316Z,2.90
2022-09-30T05:03:47.283Z,2.42
2022-09-30T05:08:52.257Z,3.03
2022-09-30T05:13:55.729Z,2.88
2022-09-30T05:18:58.958Z,2.83
2022-09-30T05:24:03.887Z,3.10
2022-09-30T05:29:07.249Z,2.80
2022-09-30T05:34:10.807Z,2.13
2022-09-30T05:39:15.988Z,2.25
2022-09-30T05:44:19.390Z,2.78
2022-09-30T05:49:22.742Z,2.05
2022-09-30T05:54:27.624Z,1.63
2022-09-30T05:59:30.868Z,2.08
2022-09-30T06:04:34.118Z,1.98
2022-09-30T06:09:38.795Z,1.90
2022-09-30T06:14:42.042Z,1.70
2022-09-30T06:19:45.358Z,1.45
2022-09-30T06:24:54.253Z,1.48
2022-09-30T06:29:58.431Z,1.40
2022-09-30T06:35:03.861Z,1.10
2022-09-30T06:40:09.980Z,1.20
2022-09-30T06:45:24.110Z,1.30
2022-09-30T06:50:32.983Z,1.13
2022-09-30T06:55:39.231Z,1.10
2022-09-30T07:00:42.583Z,1.02
2022-09-30T07:05:45.817Z,1.10
2022-09-30T07:10:50.458Z,1.20
2022-09-30T07:15:56.701Z,1.40
2022-09-30T07:20:59.933Z,1.60
2022-09-30T07:26:05.961Z,1.67
2022-09-30T07:31:31.931Z,1.40
2022-09-30T07:36:35.719Z,1.88
2022-09-30T07:41:41.627Z,1.80
2022-09-30T07:46:46.338Z,1.80
2022-09-30T07:51:49.565Z,1.75
2022-09-30T07:57:10.991Z,1.73
2022-09-30T08:02:18.393Z,2.13
2022-09-30T08:07:21.693Z,1.90
2022-09-30T08:12:26.377Z,1.90
2022-09-30T08:17:29.599Z,2.33
2022-09-30T08:22:33.055Z,2.35
2022-09-30T08:27:37.955Z,3.13
2022-09-30T08:32:41.317Z,2.72
2022-09-30T08:37:44.615Z,2.38
2022-09-30T08:43:09.128Z,2.83
2022-09-30T08:48:36.131Z,2.45
2022-09-30T08:53:43.006Z,2.50
2022-09-30T08:58:51.199Z,2.35
2022-09-30T09:03:55.188Z,2.55
2022-09-30T09:09:26.437Z,2.35
2022-09-30T09:14:43.432Z,2.15
2022-09-30T09:19:55.605Z,2.15
2022-09-30T09:25:01.016Z,2.50
2022-09-30T09:30:08.021Z,2.35
2022-09-30T09:35:16.456Z,2.15
2022-09-30T09:40:27.866Z,2.45
2022-09-30T09:45:39.895Z,2.03
2022-09-30T09:50:54.668Z,2.20
2022-09-30T09:56:00.326Z,2.00
2022-09-30T10:01:32.152Z,1.77
2022-09-30T10:06:45.650Z,2.10
2022-09-30T10:11:48.921Z,3.00
2022-09-30T10:17:00.567Z,2.00
2022-09-30T10:22:19.572Z,2.05
2022-09-30T10:27:34.967Z,1.77
2022-09-30T10:32:39.632Z,1.95
2022-09-30T10:37:52.628Z,2.17
2022-09-30T10:42:56.862Z,2.47
2022-09-30T10:48:07.022Z,2.33
2022-09-30T10:53:18.364Z,2.58
2022-09-30T10:58:35.462Z,2.60
2022-09-30T11:03:50.272Z,2.33
2022-09-30T11:08:59.352Z,1.75
2022-09-30T11:14:16.957Z,2.17
2022-09-30T11:19:28.794Z,2.17
2022-09-30T11:24:40.485Z,2.03
2022-09-30T11:29:57.332Z,1.65
2022-09-30T11:35:09.708Z,1.80
2022-09-30T11:40:31.838Z,1.35
2022-09-30T11:45:47.093Z,1.20
2022-09-30T11:51:03.669Z,1.25
2022-09-30T11:56:22.335Z,1.70
2022-09-30T12:01:32.756Z,1.50
2022-09-30T12:06:41.846Z,1.50
2022-09-30T12:11:52.298Z,1.25
2022-09-30T12:16:57.868Z,1.40
2022-09-30T12:22:07.571Z,1.42
2022-09-30T12:27:18.816Z,1.30
2022-09-30T12:33:04.230Z,1.33
2022-09-30T12:38:28.251Z,1.27
2022-09-30T12:44:00.443Z,1.17
2022-09-30T12:49:07.828Z,1.10
2022-09-30T12:54:19.396Z,1.30
2022-09-30T12:59:29.863Z,1.02
2022-09-30T13:04:36.003Z,1.00
2022-09-30T13:09:58.744Z,0.90
2022-09-30T13:15:25.278Z,0.85
2022-09-30T13:20:56.782Z,0.90
2022-09-30T13:26:02.081Z,0.80
2022-09-30T13:31:19.288Z,0.85
2022-09-30T13:36:31.446Z,1.40
2022-09-30T13:41:38.646Z,0.77
2022-09-30T13:46:50.047Z,0.80
2022-09-30T13:51:54.997Z,0.75
2022-09-30T13:57:01.009Z,0.82
2022-09-30T14:02:37.524Z,0.80
2022-09-30T14:07:51.555Z,0.80
2022-09-30T14:13:11.774Z,0.90
2022-09-30T14:18:46.473Z,0.60
2022-09-30T14:23:58.703Z,0.80
2022-09-30T14:29:12.438Z,0.80
2022-09-30T14:34:17.142Z,0.80
2022-09-30T14:39:23.688Z,0.75
2022-09-30T14:44:31.925Z,0.98
2022-09-30T14:49:37.552Z,0.77
2022-09-30T14:54:48.683Z,0.80
2022-09-30T14:59:53.312Z,1.00
2022-09-30T15:05:01.285Z,0.95
2022-09-30T15:10:06.019Z,0.73
2022-09-30T15:15:25.848Z,0.82
2022-09-30T15:20:32.355Z,0.82
2022-09-30T15:25:36.821Z,0.75
2022-09-30T15:30:43.190Z,1.20
2022-09-30T15:35:46.939Z,1.05
2022-09-30T15:41:03.307Z,1.10
2022-09-30T15:46:27.491Z,1.10
2022-09-30T15:51:34.781Z,1.30
2022-09-30T15:56:38.997Z,1.55
2022-09-30T16:01:46.569Z,1.45
2022-09-30T16:06:54.250Z,1.17
2022-09-30T16:12:08.807Z,1.17
2022-09-30T16:17:19.961Z,1.02
2022-09-30T16:22:36.174Z,1.38
2022-09-30T16:27:40.413Z,1.40
2022-09-30T16:32:47.917Z,1.38
2022-09-30T16:37:52.324Z,1.63
2022-09-30T16:42:56.031Z,1.50
2022-09-30T16:48:02.911Z,1.10
2022-09-30T16:53:06.444Z,1.08
2022-09-30T16:58:13.416Z,1.10
2022-09-30T17:03:21.670Z,1.33
2022-09-30T17:08:25.057Z,1.25
2022-09-30T17:13:29.237Z,1.52
2022-09-30T17:18:34.742Z,1.60
2022-09-30T17:23:38.064Z,1.50
2022-09-30T17:28:41.433Z,1.38
2022-09-30T17:33:46.381Z,1.52
2022-09-30T17:38:55.083Z,1.55
2022-09-30T17:44:02.485Z,1.30
2022-09-30T17:49:09.144Z,1.52
2022-09-30T17:54:13.192Z,1.50
2022-09-30T17:59:17.684Z,1.25
2022-09-30T18:04:22.779Z,1.33
2022-09-30T18:09:26.350Z,1.45
2022-09-30T18:14:35.205Z,1.60
2022-09-30T18:19:40.478Z,1.77
2022-09-30T18:25:01.499Z,1.67
2022-09-30T18:30:06.581Z,1.70
2022-09-30T18:35:13.331Z,1.50
2022-09-30T18:40:18.137Z,1.60
2022-09-30T18:45:24.019Z,1.40
2022-09-30T18:50:30.659Z,1.83
2022-09-30T18:55:34.579Z,1.77
2022-09-30T19:00:39.995Z,1.80
2022-09-30T19:05:46.257Z,1.95
2022-09-30T19:10:50.753Z,1.88
2022-09-30T19:15:56.619Z,1.70
2022-09-30T19:21:07.418Z,1.88
2022-09-30T19:26:11.789Z,2.00
2022-09-30T19:31:21.623Z,2.17
2022-09-30T19:36:28.727Z,1.80
2022-09-30T19:41:33.232Z,1.95
2022-09-30T19:46:37.483Z,2.08
2022-09-30T19:51:43.983Z,2.50
2022-09-30T19:56:48.608Z,2.28
2022-09-30T20:01:55.414Z,2.55
2022-09-30T20:07:02.402Z,2.58
2022-09-30T20:12:10.985Z,2.50
2022-09-30T20:17:14.565Z,2.38
2022-09-30T20:22:19.559Z,2.25
2022-09-30T20:27:23.144Z,1.98
2022-09-30T20:32:31.119Z,2.15
2022-09-30T20:37:36.182Z,2.28
2022-09-30T20:42:40.256Z,2.60
2022-09-30T20:47:47.810Z,2.03
2022-09-30T20:52:54.818Z,1.90
2022-09-30T20:57:58.115Z,2.50
2022-09-30T21:03:01.387Z,2.90
2022-09-30T21:08:07.448Z,2.83
2022-09-30T21:13:11.536Z,1.83
2022-09-30T21:18:14.786Z,3.28
2022-09-30T21:23:19.831Z,2.20
2022-09-30T21:28:24.711Z,2.45
2022-09-30T21:33:28.029Z,2.88
2022-09-30T21:38:34.239Z,2.72
2022-09-30T21:43:39.027Z,2.35
2022-09-30T21:48:43.075Z,2.60
2022-09-30T21:53:48.846Z,2.50
2022-09-30T21:58:52.097Z,2.92
2022-09-30T22:03:55.307Z,2.95
2022-09-30T22:09:01.520Z,2.60
2022-09-30T22:14:04.961Z,2.55
2022-09-30T22:19:10.064Z,2.55
2022-09-30T22:24:14.781Z,2.92
2022-09-30T22:29:18.130Z,2.78
2022-09-30T22:34:38.919Z,2.25
2022-09-30T22:39:43.542Z,2.45
2022-09-30T22:44:47.589Z,2.60
2022-09-30T22:49:51.052Z,2.72
2022-09-30T22:54:55.728Z,3.55
2022-09-30T22:59:59.862Z,2.70
2022-09-30T23:05:03.324Z,2.88
2022-09-30T23:10:10.561Z,2.13
2022-09-30T23:15:13.805Z,2.72
2022-09-30T23:20:17.102Z,2.58
2022-09-30T23:25:21.804Z,2.83
2022-09-30T23:30:25.388Z,3.03
2022-09-30T23:35:28.756Z,2.67
2022-09-30T23:40:33.776Z,2.42
2022-09-30T23:45:37.143Z,2.92
2022-09-30T23:50:41.189Z,3.25
2022-09-30T23:55:55.247Z,2.70
